sensor_id;sensor_type;location;lat;lon;timestamp;P1;durP1;ratioP1;P2;durP2;ratioP2
12435;SDS011;6282;51.440;6.938;2022-07-06T00:02:24;2.20;;;1.45;;
12435;SDS011;6282;51.440;6.938;2022-07-06T00:04:51;1.75;;;1.63;;
12435;SDS011;6282;51.440;6.938;2022-07-06T00:07:20;1.25;;;1.15;;
12435;SDS011;6282;51.440;6.938;2022-07-06T00:09:47;3.95;;;1.50;;
12435;SDS011;6282;51.440;6.938;2022-07-06T00:12:14;2.35;;;1.50;;
12435;SDS011;6282;51.440;6.938;2022-07-06T00:14:41;2.85;;;1.50;;
12435;SDS011;6282;51.440;6.938;2022-07-06T00:17:08;2.25;;;1.48;;
12435;SDS011;6282;51.440;6.938;2022-07-06T00:19:35;4.55;;;1.60;;
12435;SDS011;6282;51.440;6.938;2022-07-06T00:22:02;1.45;;;1.20;;
12435;SDS011;6282;51.440;6.938;2022-07-06T00:24:30;1.73;;;1.38;;
12435;SDS011;6282;51.440;6.938;2022-07-06T00:26:57;2.33;;;1.20;;
12435;SDS011;6282;51.440;6.938;2022-07-06T00:29:24;1.95;;;1.50;;
12435;SDS011;6282;51.440;6.938;2022-07-06T00:31:51;2.50;;;1.50;;
12435;SDS011;6282;51.440;6.938;2022-07-06T00:34:18;1.15;;;1.00;;
12435;SDS011;6282;51.440;6.938;2022-07-06T00:36:45;2.28;;;1.20;;
12435;SDS011;6282;51.440;6.938;2022-07-06T00:39:12;1.30;;;1.20;;
12435;SDS011;6282;51.440;6.938;2022-07-06T00:41:40;1.42;;;1.10;;
12435;SDS011;6282;51.440;6.938;2022-07-06T00:44:07;2.17;;;1.20;;
12435;SDS011;6282;51.440;6.938;2022-07-06T00:46:35;2.78;;;1.60;;
12435;SDS011;6282;51.440;6.938;2022-07-06T00:49:02;1.27;;;1.17;;
12435;SDS011;6282;51.440;6.938;2022-07-06T00:51:30;2.30;;;1.20;;
12435;SDS011;6282;51.440;6.938;2022-07-06T00:53:58;1.10;;;1.10;;
12435;SDS011;6282;51.440;6.938;2022-07-06T00:56:28;2.33;;;1.38;;
12435;SDS011;6282;51.440;6.938;2022-07-06T00:58:58;1.67;;;1.10;;
12435;SDS011;6282;51.440;6.938;2022-07-06T01:01:26;1.15;;;1.10;;
12435;SDS011;6282;51.440;6.938;2022-07-06T01:03:53;1.73;;;1.30;;
12435;SDS011;6282;51.440;6.938;2022-07-06T01:06:19;2.08;;;1.10;;
12435;SDS011;6282;51.440;6.938;2022-07-06T01:08:46;2.05;;;1.15;;
12435;SDS011;6282;51.440;6.938;2022-07-06T01:11:14;1.10;;;1.10;;
12435;SDS011;6282;51.440;6.938;2022-07-06T01:13:44;1.70;;;1.02;;
12435;SDS011;6282;51.440;6.938;2022-07-06T01:16:12;1.50;;;1.08;;
12435;SDS011;6282;51.440;6.938;2022-07-06T01:18:39;3.20;;;1.30;;
12435;SDS011;6282;51.440;6.938;2022-07-06T01:21:09;0.90;;;0.90;;
12435;SDS011;6282;51.440;6.938;2022-07-06T01:23:41;1.15;;;1.00;;
12435;SDS011;6282;51.440;6.938;2022-07-06T01:26:09;1.08;;;1.08;;
12435;SDS011;6282;51.440;6.938;2022-07-06T01:28:37;2.35;;;1.10;;
12435;SDS011;6282;51.440;6.938;2022-07-06T01:31:05;2.35;;;1.15;;
12435;SDS011;6282;51.440;6.938;2022-07-06T01:33:32;0.88;;;0.88;;
12435;SDS011;6282;51.440;6.938;2022-07-06T01:35:59;1.23;;;1.05;;
12435;SDS011;6282;51.440;6.938;2022-07-06T01:38:27;2.05;;;0.93;;
12435;SDS011;6282;51.440;6.938;2022-07-06T01:40:54;1.15;;;1.00;;
12435;SDS011;6282;51.440;6.938;2022-07-06T01:43:21;1.27;;;1.02;;
12435;SDS011;6282;51.440;6.938;2022-07-06T01:45:48;1.73;;;1.35;;
12435;SDS011;6282;51.440;6.938;2022-07-06T01:48:15;1.27;;;1.10;;
12435;SDS011;6282;51.440;6.938;2022-07-06T01:50:41;1.77;;;1.02;;
12435;SDS011;6282;51.440;6.938;2022-07-06T01:53:08;0.77;;;0.77;;
12435;SDS011;6282;51.440;6.938;2022-07-06T01:55:37;4.82;;;1.17;;
12435;SDS011;6282;51.440;6.938;2022-07-06T01:58:04;3.40;;;1.60;;
12435;SDS011;6282;51.440;6.938;2022-07-06T02:00:31;2.97;;;1.25;;
12435;SDS011;6282;51.440;6.938;2022-07-06T02:02:57;1.40;;;1.10;;
12435;SDS011;6282;51.440;6.938;2022-07-06T02:05:24;1.77;;;1.10;;
12435;SDS011;6282;51.440;6.938;2022-07-06T02:07:51;2.25;;;1.38;;
12435;SDS011;6282;51.440;6.938;2022-07-06T02:10:18;2.10;;;1.42;;
12435;SDS011;6282;51.440;6.938;2022-07-06T02:12:46;1.63;;;1.40;;
12435;SDS011;6282;51.440;6.938;2022-07-06T02:15:13;2.55;;;1.40;;
12435;SDS011;6282;51.440;6.938;2022-07-06T02:17:41;1.98;;;1.23;;
12435;SDS011;6282;51.440;6.938;2022-07-06T02:20:08;2.58;;;1.35;;
12435;SDS011;6282;51.440;6.938;2022-07-06T02:22:35;6.25;;;2.15;;
12435;SDS011;6282;51.440;6.938;2022-07-06T02:25:03;3.35;;;1.50;;
12435;SDS011;6282;51.440;6.938;2022-07-06T02:27:30;3.40;;;1.73;;
12435;SDS011;6282;51.440;6.938;2022-07-06T02:29:58;2.15;;;1.40;;
12435;SDS011;6282;51.440;6.938;2022-07-06T02:32:25;4.07;;;1.55;;
12435;SDS011;6282;51.440;6.938;2022-07-06T02:34:52;4.82;;;2.15;;
12435;SDS011;6282;51.440;6.938;2022-07-06T02:37:19;5.25;;;1.90;;
12435;SDS011;6282;51.440;6.938;2022-07-06T02:39:46;5.10;;;1.92;;
12435;SDS011;6282;51.440;6.938;2022-07-06T02:42:13;5.53;;;2.15;;
12435;SDS011;6282;51.440;6.938;2022-07-06T02:44:40;5.88;;;2.25;;
12435;SDS011;6282;51.440;6.938;2022-07-06T02:47:08;5.00;;;1.95;;
12435;SDS011;6282;51.440;6.938;2022-07-06T02:49:35;4.53;;;2.20;;
12435;SDS011;6282;51.440;6.938;2022-07-06T02:52:02;4.45;;;2.47;;
12435;SDS011;6282;51.440;6.938;2022-07-06T02:54:30;5.40;;;2.67;;
12435;SDS011;6282;51.440;6.938;2022-07-06T02:56:56;8.23;;;3.47;;
12435;SDS011;6282;51.440;6.938;2022-07-06T02:59:23;10.00;;;3.47;;
12435;SDS011;6282;51.440;6.938;2022-07-06T03:01:50;7.47;;;3.43;;
12435;SDS011;6282;51.440;6.938;2022-07-06T03:04:19;9.82;;;3.60;;
12435;SDS011;6282;51.440;6.938;2022-07-06T03:06:45;9.25;;;3.85;;
12435;SDS011;6282;51.440;6.938;2022-07-06T03:09:12;11.85;;;4.13;;
12435;SDS011;6282;51.440;6.938;2022-07-06T03:11:39;11.75;;;4.22;;
12435;SDS011;6282;51.440;6.938;2022-07-06T03:14:06;10.18;;;3.78;;
12435;SDS011;6282;51.440;6.938;2022-07-06T03:16:33;9.23;;;3.83;;
12435;SDS011;6282;51.440;6.938;2022-07-06T03:19:00;7.38;;;3.72;;
12435;SDS011;6282;51.440;6.938;2022-07-06T03:21:28;7.65;;;3.80;;
12435;SDS011;6282;51.440;6.938;2022-07-06T03:23:55;7.25;;;3.45;;
12435;SDS011;6282;51.440;6.938;2022-07-06T03:26:22;9.00;;;3.83;;
12435;SDS011;6282;51.440;6.938;2022-07-06T03:28:49;6.93;;;3.55;;
12435;SDS011;6282;51.440;6.938;2022-07-06T03:31:15;9.10;;;3.78;;
12435;SDS011;6282;51.440;6.938;2022-07-06T03:33:42;6.32;;;3.53;;
12435;SDS011;6282;51.440;6.938;2022-07-06T03:36:09;8.35;;;3.22;;
12435;SDS011;6282;51.440;6.938;2022-07-06T03:38:38;6.22;;;3.47;;
12435;SDS011;6282;51.440;6.938;2022-07-06T03:41:05;6.65;;;3.30;;
12435;SDS011;6282;51.440;6.938;2022-07-06T03:43:31;6.38;;;3.40;;
12435;SDS011;6282;51.440;6.938;2022-07-06T03:45:58;8.43;;;3.05;;
12435;SDS011;6282;51.440;6.938;2022-07-06T03:48:25;5.75;;;3.40;;
12435;SDS011;6282;51.440;6.938;2022-07-06T03:50:52;5.80;;;3.35;;
12435;SDS011;6282;51.440;6.938;2022-07-06T03:53:20;8.00;;;3.53;;
12435;SDS011;6282;51.440;6.938;2022-07-06T03:55:48;5.50;;;2.90;;
12435;SDS011;6282;51.440;6.938;2022-07-06T03:58:29;6.97;;;3.78;;
12435;SDS011;6282;51.440;6.938;2022-07-06T04:00:56;7.57;;;2.95;;
12435;SDS011;6282;51.440;6.938;2022-07-06T04:03:23;4.78;;;2.92;;
12435;SDS011;6282;51.440;6.938;2022-07-06T04:05:49;5.50;;;3.17;;
12435;SDS011;6282;51.440;6.938;2022-07-06T04:08:16;6.45;;;3.03;;
12435;SDS011;6282;51.440;6.938;2022-07-06T04:10:43;5.25;;;3.22;;
12435;SDS011;6282;51.440;6.938;2022-07-06T04:13:11;6.18;;;2.70;;
12435;SDS011;6282;51.440;6.938;2022-07-06T04:15:38;6.72;;;3.10;;
12435;SDS011;6282;51.440;6.938;2022-07-06T04:18:05;5.95;;;3.17;;
12435;SDS011;6282;51.440;6.938;2022-07-06T04:20:32;6.80;;;2.60;;
12435;SDS011;6282;51.440;6.938;2022-07-06T04:22:59;7.25;;;3.38;;
12435;SDS011;6282;51.440;6.938;2022-07-06T04:25:27;9.10;;;2.78;;
12435;SDS011;6282;51.440;6.938;2022-07-06T04:27:54;6.30;;;3.38;;
12435;SDS011;6282;51.440;6.938;2022-07-06T04:30:22;7.88;;;3.65;;
12435;SDS011;6282;51.440;6.938;2022-07-06T04:32:49;6.65;;;2.97;;
12435;SDS011;6282;51.440;6.938;2022-07-06T04:35:16;5.88;;;3.25;;
12435;SDS011;6282;51.440;6.938;2022-07-06T04:37:42;6.80;;;3.75;;
12435;SDS011;6282;51.440;6.938;2022-07-06T04:40:10;5.63;;;3.38;;
12435;SDS011;6282;51.440;6.938;2022-07-06T04:42:38;4.57;;;3.20;;
12435;SDS011;6282;51.440;6.938;2022-07-06T04:45:05;5.63;;;3.03;;
12435;SDS011;6282;51.440;6.938;2022-07-06T04:47:34;8.32;;;3.50;;
12435;SDS011;6282;51.440;6.938;2022-07-06T04:50:01;5.75;;;3.28;;
12435;SDS011;6282;51.440;6.938;2022-07-06T04:52:28;6.47;;;2.72;;
12435;SDS011;6282;51.440;6.938;2022-07-06T04:54:55;7.85;;;3.53;;
12435;SDS011;6282;51.440;6.938;2022-07-06T04:57:22;6.57;;;3.67;;
12435;SDS011;6282;51.440;6.938;2022-07-06T04:59:50;5.97;;;3.42;;
12435;SDS011;6282;51.440;6.938;2022-07-06T05:02:17;6.97;;;3.90;;
12435;SDS011;6282;51.440;6.938;2022-07-06T05:04:45;8.57;;;3.22;;
12435;SDS011;6282;51.440;6.938;2022-07-06T05:07:12;9.77;;;3.60;;
12435;SDS011;6282;51.440;6.938;2022-07-06T05:09:39;10.57;;;3.67;;
12435;SDS011;6282;51.440;6.938;2022-07-06T05:12:06;10.35;;;3.92;;
12435;SDS011;6282;51.440;6.938;2022-07-06T05:14:34;7.65;;;3.85;;
12435;SDS011;6282;51.440;6.938;2022-07-06T05:17:02;7.75;;;3.80;;
12435;SDS011;6282;51.440;6.938;2022-07-06T05:19:29;7.68;;;3.35;;
12435;SDS011;6282;51.440;6.938;2022-07-06T05:21:57;8.50;;;3.15;;
12435;SDS011;6282;51.440;6.938;2022-07-06T05:24:24;6.65;;;3.00;;
12435;SDS011;6282;51.440;6.938;2022-07-06T05:26:51;5.97;;;3.28;;
12435;SDS011;6282;51.440;6.938;2022-07-06T05:29:18;9.68;;;2.63;;
12435;SDS011;6282;51.440;6.938;2022-07-06T05:31:44;6.38;;;2.50;;
12435;SDS011;6282;51.440;6.938;2022-07-06T05:34:11;6.22;;;2.50;;
12435;SDS011;6282;51.440;6.938;2022-07-06T05:36:38;5.55;;;2.65;;
12435;SDS011;6282;51.440;6.938;2022-07-06T05:39:06;5.10;;;2.30;;
12435;SDS011;6282;51.440;6.938;2022-07-06T05:41:33;6.53;;;2.22;;
12435;SDS011;6282;51.440;6.938;2022-07-06T05:44:00;4.80;;;1.73;;
12435;SDS011;6282;51.440;6.938;2022-07-06T05:46:27;2.85;;;1.90;;
12435;SDS011;6282;51.440;6.938;2022-07-06T05:48:54;5.82;;;1.65;;
12435;SDS011;6282;51.440;6.938;2022-07-06T05:51:38;1.20;;;1.10;;
12435;SDS011;6282;51.440;6.938;2022-07-06T05:54:07;5.20;;;1.20;;
12435;SDS011;6282;51.440;6.938;2022-07-06T05:56:33;5.15;;;1.33;;
12435;SDS011;6282;51.440;6.938;2022-07-06T05:59:00;4.95;;;1.10;;
12435;SDS011;6282;51.440;6.938;2022-07-06T06:01:27;2.38;;;1.02;;
12435;SDS011;6282;51.440;6.938;2022-07-06T06:03:54;1.77;;;1.20;;
12435;SDS011;6282;51.440;6.938;2022-07-06T06:06:21;2.28;;;0.90;;
12435;SDS011;6282;51.440;6.938;2022-07-06T06:08:57;2.35;;;1.30;;
12435;SDS011;6282;51.440;6.938;2022-07-06T06:11:25;1.77;;;0.90;;
12435;SDS011;6282;51.440;6.938;2022-07-06T06:13:52;2.55;;;1.10;;
12435;SDS011;6282;51.440;6.938;2022-07-06T06:16:19;2.53;;;1.15;;
12435;SDS011;6282;51.440;6.938;2022-07-06T06:18:45;2.30;;;0.90;;
12435;SDS011;6282;51.440;6.938;2022-07-06T06:21:12;2.75;;;1.00;;
12435;SDS011;6282;51.440;6.938;2022-07-06T06:23:39;5.20;;;1.20;;
12435;SDS011;6282;51.440;6.938;2022-07-06T06:26:06;3.00;;;1.27;;
12435;SDS011;6282;51.440;6.938;2022-07-06T06:28:34;2.85;;;1.27;;
12435;SDS011;6282;51.440;6.938;2022-07-06T06:31:01;5.03;;;1.02;;
12435;SDS011;6282;51.440;6.938;2022-07-06T06:33:28;4.13;;;1.02;;
12435;SDS011;6282;51.440;6.938;2022-07-06T06:35:55;4.25;;;1.25;;
12435;SDS011;6282;51.440;6.938;2022-07-06T06:38:22;3.25;;;1.02;;
12435;SDS011;6282;51.440;6.938;2022-07-06T06:40:51;1.35;;;1.10;;
12435;SDS011;6282;51.440;6.938;2022-07-06T06:43:18;1.25;;;1.15;;
12435;SDS011;6282;51.440;6.938;2022-07-06T06:45:47;3.92;;;1.00;;
12435;SDS011;6282;51.440;6.938;2022-07-06T06:48:13;8.13;;;1.25;;
12435;SDS011;6282;51.440;6.938;2022-07-06T06:50:42;3.55;;;1.08;;
12435;SDS011;6282;51.440;6.938;2022-07-06T06:53:09;5.63;;;1.15;;
12435;SDS011;6282;51.440;6.938;2022-07-06T06:55:36;1.52;;;0.90;;
12435;SDS011;6282;51.440;6.938;2022-07-06T06:58:03;1.52;;;1.10;;
12435;SDS011;6282;51.440;6.938;2022-07-06T07:00:30;2.88;;;0.85;;
12435;SDS011;6282;51.440;6.938;2022-07-06T07:02:58;3.78;;;1.15;;
12435;SDS011;6282;51.440;6.938;2022-07-06T07:05:25;2.03;;;0.95;;
12435;SDS011;6282;51.440;6.938;2022-07-06T07:07:52;3.58;;;0.80;;
12435;SDS011;6282;51.440;6.938;2022-07-06T07:10:23;2.67;;;0.80;;
12435;SDS011;6282;51.440;6.938;2022-07-06T07:12:51;2.80;;;0.70;;
12435;SDS011;6282;51.440;6.938;2022-07-06T07:15:18;3.08;;;0.77;;
12435;SDS011;6282;51.440;6.938;2022-07-06T07:17:45;1.33;;;0.80;;
12435;SDS011;6282;51.440;6.938;2022-07-06T07:20:14;1.90;;;0.95;;
12435;SDS011;6282;51.440;6.938;2022-07-06T07:22:41;2.78;;;1.05;;
12435;SDS011;6282;51.440;6.938;2022-07-06T07:25:08;1.48;;;1.00;;
12435;SDS011;6282;51.440;6.938;2022-07-06T07:27:35;0.90;;;0.80;;
12435;SDS011;6282;51.440;6.938;2022-07-06T07:30:02;3.47;;;0.90;;
12435;SDS011;6282;51.440;6.938;2022-07-06T07:32:29;2.40;;;0.85;;
12435;SDS011;6282;51.440;6.938;2022-07-06T07:34:56;2.80;;;0.75;;
12435;SDS011;6282;51.440;6.938;2022-07-06T07:37:25;2.65;;;0.80;;
12435;SDS011;6282;51.440;6.938;2022-07-06T07:39:51;0.68;;;0.68;;
12435;SDS011;6282;51.440;6.938;2022-07-06T07:42:18;7.10;;;1.30;;
12435;SDS011;6282;51.440;6.938;2022-07-06T07:44:45;3.95;;;1.33;;
12435;SDS011;6282;51.440;6.938;2022-07-06T07:47:12;2.92;;;1.33;;
12435;SDS011;6282;51.440;6.938;2022-07-06T07:49:39;3.00;;;0.80;;
12435;SDS011;6282;51.440;6.938;2022-07-06T07:52:06;3.20;;;0.70;;
12435;SDS011;6282;51.440;6.938;2022-07-06T07:54:34;1.35;;;0.68;;
12435;SDS011;6282;51.440;6.938;2022-07-06T07:57:01;0.98;;;0.60;;
12435;SDS011;6282;51.440;6.938;2022-07-06T07:59:28;2.05;;;0.68;;
12435;SDS011;6282;51.440;6.938;2022-07-06T08:01:55;2.72;;;0.90;;
12435;SDS011;6282;51.440;6.938;2022-07-06T08:04:22;2.08;;;1.15;;
12435;SDS011;6282;51.440;6.938;2022-07-06T08:06:49;2.00;;;0.90;;
12435;SDS011;6282;51.440;6.938;2022-07-06T08:09:16;3.17;;;0.93;;
12435;SDS011;6282;51.440;6.938;2022-07-06T08:11:44;1.10;;;0.90;;
12435;SDS011;6282;51.440;6.938;2022-07-06T08:14:11;1.17;;;0.80;;
12435;SDS011;6282;51.440;6.938;2022-07-06T08:16:39;2.90;;;0.93;;
12435;SDS011;6282;51.440;6.938;2022-07-06T08:19:06;3.88;;;0.93;;
12435;SDS011;6282;51.440;6.938;2022-07-06T08:21:33;2.78;;;1.00;;
12435;SDS011;6282;51.440;6.938;2022-07-06T08:24:00;6.22;;;0.82;;
12435;SDS011;6282;51.440;6.938;2022-07-06T08:26:27;2.05;;;0.98;;
12435;SDS011;6282;51.440;6.938;2022-07-06T08:28:56;4.13;;;1.02;;
12435;SDS011;6282;51.440;6.938;2022-07-06T08:31:23;3.22;;;1.33;;
12435;SDS011;6282;51.440;6.938;2022-07-06T08:33:50;2.47;;;1.20;;
12435;SDS011;6282;51.440;6.938;2022-07-06T08:36:18;1.77;;;0.90;;
12435;SDS011;6282;51.440;6.938;2022-07-06T08:38:45;3.35;;;1.10;;
12435;SDS011;6282;51.440;6.938;2022-07-06T08:41:12;3.40;;;1.00;;
12435;SDS011;6282;51.440;6.938;2022-07-06T08:43:40;2.70;;;1.10;;
12435;SDS011;6282;51.440;6.938;2022-07-06T08:46:09;1.33;;;0.85;;
12435;SDS011;6282;51.440;6.938;2022-07-06T08:48:39;3.72;;;1.10;;
12435;SDS011;6282;51.440;6.938;2022-07-06T08:51:07;3.08;;;0.88;;
12435;SDS011;6282;51.440;6.938;2022-07-06T08:53:34;2.53;;;1.02;;
12435;SDS011;6282;51.440;6.938;2022-07-06T08:56:02;2.92;;;1.10;;
12435;SDS011;6282;51.440;6.938;2022-07-06T08:58:29;4.30;;;0.90;;
12435;SDS011;6282;51.440;6.938;2022-07-06T09:00:58;2.47;;;1.05;;
12435;SDS011;6282;51.440;6.938;2022-07-06T09:03:27;3.35;;;1.33;;
12435;SDS011;6282;51.440;6.938;2022-07-06T09:05:56;3.90;;;1.42;;
12435;SDS011;6282;51.440;6.938;2022-07-06T09:08:26;3.25;;;1.63;;
12435;SDS011;6282;51.440;6.938;2022-07-06T09:10:54;1.55;;;0.82;;
12435;SDS011;6282;51.440;6.938;2022-07-06T09:13:20;1.40;;;0.80;;
12435;SDS011;6282;51.440;6.938;2022-07-06T09:15:47;2.25;;;0.80;;
12435;SDS011;6282;51.440;6.938;2022-07-06T09:18:14;1.27;;;0.77;;
12435;SDS011;6282;51.440;6.938;2022-07-06T09:20:42;1.08;;;0.98;;
12435;SDS011;6282;51.440;6.938;2022-07-06T09:23:09;0.70;;;0.70;;
12435;SDS011;6282;51.440;6.938;2022-07-06T09:25:41;1.45;;;0.70;;
12435;SDS011;6282;51.440;6.938;2022-07-06T09:28:08;4.10;;;0.93;;
12435;SDS011;6282;51.440;6.938;2022-07-06T09:30:35;3.20;;;1.00;;
12435;SDS011;6282;51.440;6.938;2022-07-06T09:33:05;3.75;;;0.98;;
12435;SDS011;6282;51.440;6.938;2022-07-06T09:35:35;1.13;;;0.80;;
12435;SDS011;6282;51.440;6.938;2022-07-06T09:38:05;2.65;;;1.13;;
12435;SDS011;6282;51.440;6.938;2022-07-06T09:40:34;4.15;;;1.00;;
12435;SDS011;6282;51.440;6.938;2022-07-06T09:43:08;1.92;;;0.90;;
12435;SDS011;6282;51.440;6.938;2022-07-06T09:45:36;3.60;;;0.90;;
12435;SDS011;6282;51.440;6.938;2022-07-06T09:48:07;2.35;;;1.00;;
12435;SDS011;6282;51.440;6.938;2022-07-06T09:50:40;1.98;;;0.90;;
12435;SDS011;6282;51.440;6.938;2022-07-06T09:53:10;2.10;;;0.90;;
12435;SDS011;6282;51.440;6.938;2022-07-06T09:55:37;1.00;;;0.85;;
12435;SDS011;6282;51.440;6.938;2022-07-06T09:58:04;4.78;;;1.00;;
12435;SDS011;6282;51.440;6.938;2022-07-06T10:00:31;1.52;;;0.90;;
12435;SDS011;6282;51.440;6.938;2022-07-06T10:02:58;2.00;;;0.80;;
12435;SDS011;6282;51.440;6.938;2022-07-06T10:05:26;2.15;;;1.00;;
12435;SDS011;6282;51.440;6.938;2022-07-06T10:07:56;2.97;;;1.17;;
12435;SDS011;6282;51.440;6.938;2022-07-06T10:10:26;3.28;;;0.93;;
12435;SDS011;6282;51.440;6.938;2022-07-06T10:12:55;1.85;;;1.00;;
12435;SDS011;6282;51.440;6.938;2022-07-06T10:15:23;4.22;;;1.27;;
12435;SDS011;6282;51.440;6.938;2022-07-06T10:17:52;3.67;;;1.05;;
12435;SDS011;6282;51.440;6.938;2022-07-06T10:20:19;2.25;;;1.20;;
12435;SDS011;6282;51.440;6.938;2022-07-06T10:22:48;1.70;;;1.08;;
12435;SDS011;6282;51.440;6.938;2022-07-06T10:25:15;2.70;;;0.93;;
12435;SDS011;6282;51.440;6.938;2022-07-06T10:27:44;3.22;;;1.10;;
12435;SDS011;6282;51.440;6.938;2022-07-06T10:30:12;3.47;;;1.10;;
12435;SDS011;6282;51.440;6.938;2022-07-06T10:32:40;6.05;;;1.30;;
12435;SDS011;6282;51.440;6.938;2022-07-06T10:35:09;3.85;;;1.20;;
12435;SDS011;6282;51.440;6.938;2022-07-06T10:37:36;5.78;;;1.20;;
12435;SDS011;6282;51.440;6.938;2022-07-06T10:40:04;2.33;;;0.90;;
12435;SDS011;6282;51.440;6.938;2022-07-06T10:42:55;2.60;;;1.15;;
12435;SDS011;6282;51.440;6.938;2022-07-06T10:48:19;4.07;;;1.30;;
12435;SDS011;6282;51.440;6.938;2022-07-06T10:50:48;14.52;;;1.35;;
12435;SDS011;6282;51.440;6.938;2022-07-06T10:53:16;3.17;;;1.00;;
12435;SDS011;6282;51.440;6.938;2022-07-06T10:55:47;3.60;;;1.08;;
12435;SDS011;6282;51.440;6.938;2022-07-06T11:01:16;2.38;;;0.82;;
12435;SDS011;6282;51.440;6.938;2022-07-06T11:03:44;1.95;;;1.10;;
12435;SDS011;6282;51.440;6.938;2022-07-06T11:06:15;3.05;;;1.00;;
12435;SDS011;6282;51.440;6.938;2022-07-06T11:08:44;3.67;;;1.25;;
12435;SDS011;6282;51.440;6.938;2022-07-06T11:11:13;3.47;;;1.20;;
12435;SDS011;6282;51.440;6.938;2022-07-06T11:13:42;4.57;;;0.80;;
12435;SDS011;6282;51.440;6.938;2022-07-06T11:16:15;1.75;;;0.90;;
12435;SDS011;6282;51.440;6.938;2022-07-06T11:18:45;1.75;;;1.00;;
12435;SDS011;6282;51.440;6.938;2022-07-06T11:21:20;2.97;;;0.98;;
12435;SDS011;6282;51.440;6.938;2022-07-06T11:23:48;2.25;;;0.98;;
12435;SDS011;6282;51.440;6.938;2022-07-06T11:26:17;0.85;;;0.73;;
12435;SDS011;6282;51.440;6.938;2022-07-06T11:28:45;1.30;;;0.80;;
12435;SDS011;6282;51.440;6.938;2022-07-06T11:31:15;3.58;;;1.00;;
12435;SDS011;6282;51.440;6.938;2022-07-06T11:33:44;1.85;;;0.80;;
12435;SDS011;6282;51.440;6.938;2022-07-06T11:36:15;4.35;;;0.98;;
12435;SDS011;6282;51.440;6.938;2022-07-06T11:38:43;2.72;;;0.90;;
12435;SDS011;6282;51.440;6.938;2022-07-06T11:41:11;2.38;;;0.82;;
12435;SDS011;6282;51.440;6.938;2022-07-06T11:43:40;2.05;;;0.90;;
12435;SDS011;6282;51.440;6.938;2022-07-06T11:46:21;1.85;;;0.80;;
12435;SDS011;6282;51.440;6.938;2022-07-06T11:48:49;1.27;;;0.80;;
12435;SDS011;6282;51.440;6.938;2022-07-06T11:51:17;1.38;;;0.70;;
12435;SDS011;6282;51.440;6.938;2022-07-06T11:53:45;4.63;;;1.20;;
12435;SDS011;6282;51.440;6.938;2022-07-06T11:56:14;2.65;;;0.82;;
12435;SDS011;6282;51.440;6.938;2022-07-06T11:58:43;1.77;;;1.00;;
12435;SDS011;6282;51.440;6.938;2022-07-06T12:01:12;1.08;;;0.85;;
12435;SDS011;6282;51.440;6.938;2022-07-06T12:03:40;2.25;;;0.90;;
12435;SDS011;6282;51.440;6.938;2022-07-06T12:06:12;2.30;;;0.90;;
12435;SDS011;6282;51.440;6.938;2022-07-06T12:08:41;4.35;;;1.00;;
12435;SDS011;6282;51.440;6.938;2022-07-06T12:11:09;3.38;;;0.75;;
12435;SDS011;6282;51.440;6.938;2022-07-06T12:13:37;1.20;;;0.73;;
12435;SDS011;6282;51.440;6.938;2022-07-06T12:16:11;2.67;;;0.85;;
12435;SDS011;6282;51.440;6.938;2022-07-06T12:18:41;1.33;;;0.95;;
12435;SDS011;6282;51.440;6.938;2022-07-06T12:21:09;2.03;;;0.82;;
12435;SDS011;6282;51.440;6.938;2022-07-06T12:23:41;2.88;;;1.15;;
12435;SDS011;6282;51.440;6.938;2022-07-06T12:26:09;3.15;;;1.00;;
12435;SDS011;6282;51.440;6.938;2022-07-06T12:28:37;2.38;;;1.00;;
12435;SDS011;6282;51.440;6.938;2022-07-06T12:31:05;2.15;;;0.82;;
12435;SDS011;6282;51.440;6.938;2022-07-06T12:33:32;1.17;;;0.85;;
12435;SDS011;6282;51.440;6.938;2022-07-06T12:36:11;3.00;;;0.90;;
12435;SDS011;6282;51.440;6.938;2022-07-06T12:38:45;3.25;;;0.93;;
12435;SDS011;6282;51.440;6.938;2022-07-06T12:41:27;2.80;;;0.80;;
12435;SDS011;6282;51.440;6.938;2022-07-06T12:44:02;4.47;;;0.98;;
12435;SDS011;6282;51.440;6.938;2022-07-06T12:46:33;1.63;;;0.80;;
12435;SDS011;6282;51.440;6.938;2022-07-06T12:49:03;1.80;;;0.73;;
12435;SDS011;6282;51.440;6.938;2022-07-06T12:51:52;2.88;;;0.80;;
12435;SDS011;6282;51.440;6.938;2022-07-06T12:54:20;4.93;;;0.90;;
12435;SDS011;6282;51.440;6.938;2022-07-06T12:57:02;2.08;;;0.70;;
12435;SDS011;6282;51.440;6.938;2022-07-06T12:59:34;1.70;;;0.70;;
12435;SDS011;6282;51.440;6.938;2022-07-06T13:02:03;0.82;;;0.63;;
12435;SDS011;6282;51.440;6.938;2022-07-06T13:04:31;3.15;;;0.80;;
12435;SDS011;6282;51.440;6.938;2022-07-06T13:06:59;1.67;;;0.77;;
12435;SDS011;6282;51.440;6.938;2022-07-06T13:09:28;0.60;;;0.60;;
12435;SDS011;6282;51.440;6.938;2022-07-06T13:11:56;1.17;;;0.60;;
12435;SDS011;6282;51.440;6.938;2022-07-06T13:14:23;6.13;;;0.90;;
12435;SDS011;6282;51.440;6.938;2022-07-06T13:16:49;0.80;;;0.60;;
12435;SDS011;6282;51.440;6.938;2022-07-06T13:19:16;1.73;;;0.60;;
12435;SDS011;6282;51.440;6.938;2022-07-06T13:21:43;2.63;;;0.93;;
12435;SDS011;6282;51.440;6.938;2022-07-06T13:24:12;1.33;;;1.00;;
12435;SDS011;6282;51.440;6.938;2022-07-06T13:26:39;3.03;;;0.70;;
12435;SDS011;6282;51.440;6.938;2022-07-06T13:29:07;1.75;;;1.00;;
12435;SDS011;6282;51.440;6.938;2022-07-06T13:31:35;1.55;;;1.08;;
12435;SDS011;6282;51.440;6.938;2022-07-06T13:34:03;2.40;;;0.60;;
12435;SDS011;6282;51.440;6.938;2022-07-06T13:36:30;1.42;;;0.75;;
12435;SDS011;6282;51.440;6.938;2022-07-06T13:38:57;1.33;;;0.57;;
12435;SDS011;6282;51.440;6.938;2022-07-06T13:41:26;2.00;;;0.70;;
12435;SDS011;6282;51.440;6.938;2022-07-06T13:43:52;4.40;;;0.90;;
12435;SDS011;6282;51.440;6.938;2022-07-06T13:46:19;0.80;;;0.80;;
12435;SDS011;6282;51.440;6.938;2022-07-06T13:48:47;1.75;;;0.80;;
12435;SDS011;6282;51.440;6.938;2022-07-06T13:51:14;0.60;;;0.50;;
12435;SDS011;6282;51.440;6.938;2022-07-06T13:53:41;0.82;;;0.57;;
12435;SDS011;6282;51.440;6.938;2022-07-06T13:56:07;2.13;;;0.70;;
12435;SDS011;6282;51.440;6.938;2022-07-06T13:58:36;1.77;;;0.80;;
12435;SDS011;6282;51.440;6.938;2022-07-06T14:01:03;3.88;;;1.00;;
12435;SDS011;6282;51.440;6.938;2022-07-06T14:03:30;2.33;;;0.90;;
12435;SDS011;6282;51.440;6.938;2022-07-06T14:05:57;2.08;;;0.70;;
12435;SDS011;6282;51.440;6.938;2022-07-06T14:08:25;2.78;;;0.80;;
12435;SDS011;6282;51.440;6.938;2022-07-06T14:10:53;3.08;;;0.80;;
12435;SDS011;6282;51.440;6.938;2022-07-06T14:13:21;3.28;;;0.80;;
12435;SDS011;6282;51.440;6.938;2022-07-06T14:15:50;3.67;;;0.77;;
12435;SDS011;6282;51.440;6.938;2022-07-06T14:18:17;1.83;;;0.98;;
12435;SDS011;6282;51.440;6.938;2022-07-06T14:20:44;1.73;;;0.50;;
12435;SDS011;6282;51.440;6.938;2022-07-06T14:23:11;4.80;;;0.80;;
12435;SDS011;6282;51.440;6.938;2022-07-06T14:25:38;2.25;;;0.90;;
12435;SDS011;6282;51.440;6.938;2022-07-06T14:28:06;2.13;;;0.90;;
12435;SDS011;6282;51.440;6.938;2022-07-06T14:30:33;2.83;;;0.70;;
12435;SDS011;6282;51.440;6.938;2022-07-06T14:33:03;0.70;;;0.55;;
12435;SDS011;6282;51.440;6.938;2022-07-06T14:35:33;3.20;;;0.80;;
12435;SDS011;6282;51.440;6.938;2022-07-06T14:38:00;1.83;;;0.90;;
12435;SDS011;6282;51.440;6.938;2022-07-06T14:40:28;1.15;;;0.90;;
12435;SDS011;6282;51.440;6.938;2022-07-06T14:42:55;2.75;;;0.88;;
12435;SDS011;6282;51.440;6.938;2022-07-06T14:45:21;2.85;;;0.70;;
12435;SDS011;6282;51.440;6.938;2022-07-06T14:47:48;0.60;;;0.50;;
12435;SDS011;6282;51.440;6.938;2022-07-06T14:50:17;1.17;;;0.82;;
12435;SDS011;6282;51.440;6.938;2022-07-06T14:52:44;2.00;;;0.73;;
12435;SDS011;6282;51.440;6.938;2022-07-06T14:55:11;3.25;;;0.90;;
12435;SDS011;6282;51.440;6.938;2022-07-06T14:57:39;3.50;;;0.68;;
12435;SDS011;6282;51.440;6.938;2022-07-06T15:00:06;4.30;;;0.73;;
12435;SDS011;6282;51.440;6.938;2022-07-06T15:02:34;1.67;;;0.98;;
12435;SDS011;6282;51.440;6.938;2022-07-06T15:05:01;2.35;;;0.68;;
12435;SDS011;6282;51.440;6.938;2022-07-06T15:07:30;0.68;;;0.52;;
12435;SDS011;6282;51.440;6.938;2022-07-06T15:09:56;2.22;;;0.80;;
12435;SDS011;6282;51.440;6.938;2022-07-06T15:12:23;0.77;;;0.65;;